Terminal Aerodrome Forecast
Issued by NWS

Home | Current Version | Previous Version | Text Only | Print | Product List | Glossary On
Versions: 1 2 3 4 5 6 7 8 9 10 11 12 13 14 15 16
000
FTUS46 KPQR 241153 CCA
TAFONP
TAF COR
KONP 241153Z 2412/2512 08003KT P6SM SKC
      TEMPO 2413/2416 3SM BR FEW001
     FM242200 28005KT P6SM FEW015
     FM250200 VRB04KT P6SM BKN015=

USA.gov is the U.S. government's official web portal to all federal, state and local government web resources and services.